Miranda — C6CR7 — position and weather

sailwx.info

Track history (hours):
 
Tides and Currents Weather Stations Pressure Air Temp Water Temp Dewpoint Dewpoint Depression Visibility Wind Speed Wind Dir Waves Ship Positions

Miranda

Last reported at 2017-Nov-11 16:00 UTC. Time now 2017-Nov-24 22:02 UTC.
Position N 27°39' W 015°18'.
Warning: this ship's position is 13 days out of date.

Length 37 m; draft 2.9 m.

Type: Other ship. MMSI: 311000554.

Date/timePositionNaut miles runAvg speedWind from/ knotsBaromVisibWave heightAir tempDewpointWater temp
2017-Nov-11 16:00N 27°39' W 015°18'510.0
2017-Nov-11 15:30N 27°43' W 015°16'5 9.6
2017-Nov-11 15:00N 27°48' W 015°15'5 9.6
2017-Nov-11 14:31N 27°53' W 015°15'5 9.6
2017-Nov-11 14:01N 27°58' W 015°16'5 9.5
2017-Nov-11 13:30N 28°02' W 015°18'5 9.1
2017-Nov-11 13:00N 28°05' W 015°22'4 7.7
2017-Nov-11 12:30N 28°08' W 015°25'1 1.5
2017-Nov-11 11:57N 28°09' W 015°24'0 0.0
2017-Nov-11 11:24N 28°09' W 015°24'0 0.0
2017-Nov-11 10:57N 28°09' W 015°24'0 0.0
2017-Nov-11 10:27N 28°09' W 015°24'0 0.0
2017-Nov-11 09:57N 28°09' W 015°24'0 0.0
2017-Nov-11 09:24N 28°09' W 015°24'0 0.0
2017-Nov-11 08:57N 28°09' W 015°24'0 0.0
2017-Nov-11 08:30N 28°09' W 015°24'0 0.0
2017-Nov-11 08:00N 28°09' W 015°24'0 0.0
2017-Nov-11 07:30N 28°09' W 015°24'0 0.0
2017-Nov-11 07:00N 28°09' W 015°24'0 0.0
2017-Nov-11 06:27N 28°09' W 015°24'0 0.0
2017-Nov-11 06:00N 28°09' W 015°24'0 0.0
2017-Nov-11 05:30N 28°09' W 015°24'0 0.0
2017-Nov-11 05:00N 28°09' W 015°24'0 0.0
2017-Nov-11 04:30N 28°09' W 015°24'0 0.0
2017-Nov-11 04:00N 28°09' W 015°24'0 0.0
2017-Nov-11 03:30N 28°09' W 015°24'0 0.0
2017-Nov-11 03:00N 28°09' W 015°24'0 0.0
2017-Nov-11 02:30N 28°09' W 015°24'0 0.0
2017-Nov-11 01:51N 28°09' W 015°24'0 0.0
2017-Nov-11 01:21N 28°09' W 015°24'0 0.0
2017-Nov-11 00:51N 28°09' W 015°24'0 0.0
2017-Nov-11 00:24N 28°09' W 015°24'0 0.0
2017-Nov-10 23:48N 28°09' W 015°24'0 0.0
2017-Nov-10 23:21N 28°09' W 015°24'0 0.0
2017-Nov-10 23:00N 28°09' W 015°24'0 0.0
2017-Nov-10 22:29N 28°09' W 015°24'0 0.0
2017-Nov-10 21:59N 28°09' W 015°24'0 0.0
2017-Nov-10 21:26N 28°09' W 015°24'0 0.0
2017-Nov-10 20:59N 28°09' W 015°24'0 0.0
2017-Nov-10 20:29N 28°09' W 015°24'0 0.0
2017-Nov-10 19:59N 28°09' W 015°24'0 0.0
2017-Nov-10 19:29N 28°09' W 015°24'0 0.0
2017-Nov-10 18:59N 28°09' W 015°24'0 0.0
2017-Nov-10 18:29N 28°09' W 015°24'0 0.0
2017-Nov-10 17:59N 28°09' W 015°24'0 0.0
2017-Nov-10 17:29N 28°09' W 015°24'0 0.0
2017-Nov-10 16:47N 28°09' W 015°24'0 0.0
2017-Nov-10 16:05N 28°09' W 015°24'0 0.0
2017-Nov-10 15:53N 28°09' W 015°24'0 0.0
2017-Nov-10 15:23N 28°09' W 015°24'0 0.0
2017-Nov-10 14:53N 28°09' W 015°24'0 0.0
2017-Nov-10 14:23N 28°09' W 015°24'0 0.0
2017-Nov-10 13:53N 28°09' W 015°24'0 0.0
2017-Nov-10 13:20N 28°09' W 015°24'0 0.0
2017-Nov-10 12:53N 28°09' W 015°24'0 0.0
2017-Nov-10 12:23N 28°09' W 015°24'0 0.0
2017-Nov-10 11:53N 28°09' W 015°24'0 0.0
2017-Nov-10 11:26N 28°09' W 015°24'0 0.0
2017-Nov-10 10:56N 28°09' W 015°24'0 0.0
2017-Nov-10 10:23N 28°09' W 015°24'0 0.0
2017-Nov-10 09:56N 28°09' W 015°24'0 0.0
2017-Nov-10 09:29N 28°09' W 015°24'0 0.0
2017-Nov-10 08:59N 28°09' W 015°24'0 0.0
2017-Nov-10 08:29N 28°09' W 015°24'0 0.0
2017-Nov-10 07:59N 28°09' W 015°24'0 0.0
2017-Nov-10 07:29N 28°09' W 015°24'0 0.0
2017-Nov-10 06:59N 28°09' W 015°24'0 0.0
2017-Nov-10 06:29N 28°09' W 015°24'0 0.0
2017-Nov-10 05:59N 28°09' W 015°24'0 0.0
2017-Nov-10 05:29N 28°09' W 015°24'0 0.0
2017-Nov-10 04:47N 28°09' W 015°24'0 0.0
2017-Nov-10 04:29N 28°09' W 015°24'0 0.0
2017-Nov-10 03:47N 28°09' W 015°24'0 0.0
2017-Nov-10 03:29N 28°09' W 015°24'0 0.0
2017-Nov-10 02:59N 28°09' W 015°24'0 0.0
2017-Nov-10 02:29N 28°09' W 015°24'0 0.0
2017-Nov-10 01:47N 28°09' W 015°24'0 0.0
2017-Nov-10 01:20N 28°09' W 015°24'0 0.0
2017-Nov-10 00:53N 28°09' W 015°24'0 0.0
2017-Nov-10 00:23N 28°09' W 015°24'0 0.0
2017-Nov-09 23:53N 28°09' W 015°24'0 0.0
2017-Nov-09 23:23N 28°09' W 015°24'0 0.0
2017-Nov-09 22:53N 28°09' W 015°24'0 0.0
2017-Nov-09 22:23N 28°09' W 015°24'0 0.0
2017-Nov-09 21:53N 28°09' W 015°24'0 0.0
2017-Nov-09 21:23N 28°09' W 015°24'0 0.0
2017-Nov-09 20:53N 28°09' W 015°24'0 0.0
2017-Nov-09 20:26N 28°09' W 015°24'0 0.0
2017-Nov-09 19:53N 28°09' W 015°24'0 0.0
2017-Nov-09 19:26N 28°09' W 015°24'0 0.0
2017-Nov-09 18:56N 28°09' W 015°24'0 0.0
2017-Nov-09 18:26N 28°09' W 015°24'0 0.0
2017-Nov-09 17:59N 28°09' W 015°24'0 0.0
2017-Nov-09 17:29N 28°09' W 015°24'0 0.0
2017-Nov-09 16:59N 28°09' W 015°24'0 0.0
2017-Nov-09 16:29N 28°09' W 015°24'0 0.0
2017-Nov-09 15:59N 28°09' W 015°24'0 0.0
2017-Nov-09 15:26N 28°09' W 015°24'0 0.0
2017-Nov-09 14:59N 28°09' W 015°24'0 0.0
2017-Nov-09 14:29N 28°09' W 015°24'0 0.0
2017-Nov-09 13:47N 28°09' W 015°24'0 0.0
2017-Nov-09 13:29N 28°09' W 015°24'0 0.0
2017-Nov-09 12:59N 28°09' W 015°24'0 0.0
2017-Nov-09 12:29N 28°09' W 015°24'0 0.0
2017-Nov-09 11:59N 28°09' W 015°24'0 0.0
2017-Nov-09 11:29N 28°09' W 015°24'0 0.0
2017-Nov-09 10:50N 28°09' W 015°24'0 0.0
2017-Nov-09 10:20N 28°09' W 015°24'0 0.0
2017-Nov-09 09:50N 28°09' W 015°24'0 0.0
2017-Nov-09 09:20N 28°09' W 015°24'0 0.0
2017-Nov-09 08:50N 28°09' W 015°24'0 0.0
2017-Nov-09 08:23N 28°09' W 015°24'0 0.0
2017-Nov-09 07:53N 28°09' W 015°24'0 0.0
2017-Nov-09 07:26N 28°09' W 015°24'0 0.0
2017-Nov-09 06:56N 28°09' W 015°24'0 0.0
2017-Nov-09 06:26N 28°09' W 015°24'0 0.0
2017-Nov-09 05:56N 28°09' W 015°24'0 0.0
2017-Nov-09 05:26N 28°09' W 015°24'0 0.0
2017-Nov-09 04:56N 28°09' W 015°24'0 0.0
2017-Nov-09 04:26N 28°09' W 015°24'0 0.0
2017-Nov-09 03:56N 28°09' W 015°24'0 0.0
2017-Nov-09 03:29N 28°09' W 015°24'0 0.0
2017-Nov-09 02:59N 28°09' W 015°24'0 0.0
2017-Nov-09 02:29N 28°09' W 015°24'0 0.0
2017-Nov-09 01:59N 28°09' W 015°24'0 0.0
2017-Nov-09 01:29N 28°09' W 015°24'0 0.0
2017-Nov-09 00:59N 28°09' W 015°24'0 0.0
2017-Nov-09 00:29N 28°09' W 015°24'0 0.0
2017-Nov-08 23:59N 28°09' W 015°24'0 0.0
2017-Nov-08 23:29N 28°09' W 015°24'0 0.0
2017-Nov-08 22:59N 28°09' W 015°24'0 0.0
2017-Nov-08 22:29N 28°09' W 015°24'0 0.0
2017-Nov-08 21:59N 28°09' W 015°24'0 0.0
2017-Nov-08 21:29N 28°09' W 015°24'0 0.0
2017-Nov-08 20:59N 28°09' W 015°24'0 0.0
2017-Nov-08 20:29N 28°09' W 015°24'0 0.0
2017-Nov-08 19:59N 28°09' W 015°24'0 0.0
2017-Nov-08 19:20N 28°09' W 015°24'0 0.0
2017-Nov-08 18:59N 28°09' W 015°24'0 0.0
2017-Nov-08 18:23N 28°09' W 015°24'0 0.0
2017-Nov-08 17:53N 28°09' W 015°24'0 0.0
2017-Nov-08 17:23N 28°09' W 015°24'0 0.0
2017-Nov-08 16:53N 28°09' W 015°24'0 0.0
2017-Nov-08 16:26N 28°09' W 015°24'0 0.0
2017-Nov-08 15:57N 28°09' W 015°24'0 0.4
2017-Nov-08 15:20N 28°09' W 015°24'0 0.0
2017-Nov-08 14:50N 28°09' W 015°24'0 0.0
2017-Nov-08 14:23N 28°09' W 015°24'0 0.0
2017-Nov-08 13:53N 28°09' W 015°24'0 0.0
2017-Nov-08 13:23N 28°09' W 015°24'0 0.0
2017-Nov-08 12:53N 28°09' W 015°24'0 0.0
2017-Nov-08 12:24N 28°09' W 015°24'0 0.7
2017-Nov-08 11:58N 28°09' W 015°24'0 0.0
2017-Nov-08 11:28N 28°09' W 015°24'0 0.0
2017-Nov-08 10:55N 28°09' W 015°24'0 0.0
2017-Nov-08 10:30N 28°09' W 015°24'0 0.0
2017-Nov-08 10:00N 28°09' W 015°24'0 0.0
2017-Nov-08 09:30N 28°09' W 015°24'0 0.1
2017-Nov-08 09:00N 28°09' W 015°24'4 7.6
2017-Nov-08 08:30N 28°05' W 015°24'3 6.7
2017-Nov-08 08:00N 28°09' W 015°25'0 0.8
2017-Nov-08 07:24N 28°09' W 015°24'0 0.0
2017-Nov-08 06:57N 28°09' W 015°24'0 0.0
2017-Nov-08 06:27N 28°09' W 015°24'0 0.0
2017-Nov-08 05:57N 28°09' W 015°24'0 0.0
2017-Nov-08 05:27N 28°09' W 015°24'0 0.0
2017-Nov-08 04:57N 28°09' W 015°24'0 0.0
2017-Nov-08 04:30N 28°09' W 015°24'0 0.0
2017-Nov-08 03:57N 28°09' W 015°24'0 0.0
2017-Nov-08 03:30N 28°09' W 015°24'0 0.0
2017-Nov-08 03:00N 28°09' W 015°24'0 0.0
2017-Nov-08 02:30N 28°09' W 015°24'0 0.0
2017-Nov-08 02:00N 28°09' W 015°24'0 0.0
2017-Nov-08 01:27N 28°09' W 015°24'0 0.0
2017-Nov-08 01:00N 28°09' W 015°24'0 0.0
2017-Nov-08 00:30N 28°09' W 015°24'0 0.0
2017-Nov-08 00:00N 28°09' W 015°24'0 0.0
2017-Nov-07 23:30N 28°09' W 015°24'0 0.0
2017-Nov-07 23:00N 28°09' W 015°24'0 0.0
2017-Nov-07 22:30N 28°09' W 015°24'0 0.0
2017-Nov-07 22:00N 28°09' W 015°24'0 0.0
2017-Nov-07 21:30N 28°09' W 015°24'0 0.0
2017-Nov-07 20:54N 28°09' W 015°24'0 0.0
2017-Nov-07 20:21N 28°09' W 015°24'0 0.0
2017-Nov-07 19:36N 28°09' W 015°24'0 0.0
2017-Nov-07 19:24N 28°09' W 015°24'0 0.0
2017-Nov-07 18:51N 28°09' W 015°24'0 0.0
2017-Nov-07 18:24N 28°09' W 015°24'0 0.0
2017-Nov-07 17:54N 28°09' W 015°24'0 0.0
2017-Nov-07 17:24N 28°09' W 015°24'0 0.0
2017-Nov-07 16:54N 28°09' W 015°24'0 0.0
2017-Nov-07 16:24N 28°09' W 015°24'0 0.0
2017-Nov-07 15:58N 28°09' W 015°24'0 0.0
2017-Nov-07 15:16N 28°09' W 015°24'0 0.0
2017-Nov-07 14:58N 28°09' W 015°24'0 0.0
2017-Nov-07 14:28N 28°09' W 015°24'0 0.0
2017-Nov-07 13:49N 28°09' W 015°24'0 0.0
2017-Nov-07 13:28N 28°09' W 015°24'0 0.0
2017-Nov-07 12:49N 28°09' W 015°24'0 0.0
2017-Nov-07 12:19N 28°09' W 015°24'0 0.0
2017-Nov-07 11:52N 28°09' W 015°24'0 0.0
2017-Nov-07 11:14N 28°09' W 015°24'0 0.0
2017-Nov-07 10:59N 28°09' W 015°24'0 0.0
2017-Nov-07 10:29N 28°09' W 015°24'0 0.0
2017-Nov-07 09:59N 28°09' W 015°24'0 0.0
2017-Nov-07 09:29N 28°09' W 015°24'0 0.0
2017-Nov-07 08:59N 28°09' W 015°24'0 0.0
2017-Nov-07 08:29N 28°09' W 015°24'0 0.0
2017-Nov-07 07:59N 28°09' W 015°24'0 0.0
2017-Nov-07 07:29N 28°09' W 015°24'0 0.0
2017-Nov-07 06:59N 28°09' W 015°24'0 0.0
2017-Nov-07 06:29N 28°09' W 015°24'0 0.0
2017-Nov-07 05:59N 28°09' W 015°24'0 0.0
2017-Nov-07 05:20N 28°09' W 015°24'0 0.0
2017-Nov-07 04:50N 28°09' W 015°24'0 0.0
2017-Nov-07 04:23N 28°09' W 015°24'0 0.0
2017-Nov-07 03:53N 28°09' W 015°24'0 0.0
2017-Nov-07 03:23N 28°09' W 015°24'0 0.0
2017-Nov-07 02:53N 28°09' W 015°24'0 0.0
2017-Nov-07 02:23N 28°09' W 015°24'0 0.0
2017-Nov-07 01:53N 28°09' W 015°24'0 0.0
2017-Nov-07 01:23N 28°09' W 015°24'0 0.0
2017-Nov-07 00:56N 28°09' W 015°24'0 0.0
2017-Nov-07 00:26N 28°09' W 015°24'0 0.0
2017-Nov-06 23:56N 28°09' W 015°24'0 0.0
2017-Nov-06 23:26N 28°09' W 015°24'0 0.0
2017-Nov-06 22:56N 28°09' W 015°24'0 0.0
2017-Nov-06 22:29N 28°09' W 015°24'0 0.0
2017-Nov-06 21:59N 28°09' W 015°24'0 0.0
2017-Nov-06 21:29N 28°09' W 015°24'0 0.0
2017-Nov-06 20:56N 28°09' W 015°24'0 0.0
2017-Nov-06 20:14N 28°09' W 015°24'0 0.0
2017-Nov-06 02:29N 28°09' W 015°24'0 0.0
2017-Nov-06 01:59N 28°09' W 015°24'0 0.0
2017-Nov-06 01:29N 28°09' W 015°24'0 0.0
2017-Nov-06 00:59N 28°09' W 015°24'0 0.0
2017-Nov-06 00:29N 28°09' W 015°24'0 0.0
2017-Nov-05 23:59N 28°09' W 015°24'0 0.0
2017-Nov-05 23:20N 28°09' W 015°24'0 0.0
2017-Nov-05 22:50N 28°09' W 015°24'0 0.0
2017-Nov-05 22:20N 28°09' W 015°24'0 0.0
2017-Nov-05 21:53N 28°09' W 015°24'0 0.0
2017-Nov-05 21:23N 28°09' W 015°24'0 0.0
2017-Nov-05 20:53N 28°09' W 015°24'0 0.0
2017-Nov-05 20:23N 28°09' W 015°24'0 0.0
2017-Nov-05 19:53N 28°09' W 015°24'0 0.0
2017-Nov-05 19:26N 28°09' W 015°24'0 0.0
2017-Nov-05 18:53N 28°09' W 015°24'0 0.0
2017-Nov-05 18:26N 28°09' W 015°24'0 0.0
2017-Nov-05 17:56N 28°09' W 015°24'0 0.0
2017-Nov-05 17:26N 28°09' W 015°24'0 0.0
2017-Nov-05 16:56N 28°09' W 015°24'0 0.0
2017-Nov-05 16:26N 28°09' W 015°24'0 0.0
2017-Nov-05 15:56N 28°09' W 015°24'0 0.0
2017-Nov-05 15:29N 28°09' W 015°24'0 0.0
2017-Nov-05 14:59N 28°09' W 015°24'0 0.0
2017-Nov-05 14:29N 28°09' W 015°24'0 0.0
2017-Nov-05 13:56N 28°09' W 015°24'0 0.0
2017-Nov-05 13:26N 28°09' W 015°24'0 0.0
2017-Nov-05 12:59N 28°09' W 015°24'0 0.0
2017-Nov-05 12:29N 28°09' W 015°24'0 0.0
2017-Nov-05 11:59N 28°09' W 015°24'0 0.0
2017-Nov-05 11:29N 28°09' W 015°24'0 0.0
2017-Nov-05 10:59N 28°09' W 015°24'0 0.0
2017-Nov-05 10:29N 28°09' W 015°24'0 0.0
2017-Nov-05 09:59N 28°09' W 015°24'0 0.0
2017-Nov-05 09:29N 28°09' W 015°24'0 0.0
2017-Nov-05 08:50N 28°09' W 015°24'0 0.0
2017-Nov-05 08:20N 28°09' W 015°24'0 0.0
2017-Nov-05 07:50N 28°09' W 015°24'0 0.0
2017-Nov-05 07:30N 28°09' W 015°24'2 3.6
2017-Nov-05 07:00N 28°07' W 015°24'4 7.1
2017-Nov-05 06:30N 28°06' W 015°21'4 7.3
2017-Nov-05 06:00N 28°04' W 015°17'4 7.2
2017-Nov-05 05:30N 28°01' W 015°15'3 6.3
2017-Nov-05 05:00N 27°58' W 015°14'3 6.3
2017-Nov-05 04:28N 27°54' W 015°14'3 6.1
2017-Nov-05 04:00N 27°52' W 015°14'3 6.1
2017-Nov-05 03:30N 27°49' W 015°14'  
Track history (hours):
 
Tides and Currents Weather Stations Pressure Air Temp Water Temp Dewpoint Dewpoint Depression Visibility Wind Speed Wind Dir Waves Ship Positions

Miranda

Last reported at 2017-Nov-11 16:00 UTC. Time now 2017-Nov-24 22:02 UTC.
Position N 27°39' W 015°18'.
Warning: this ship's position is 13 days out of date.

Length 37 m; draft 2.9 m.

Type: Other ship. MMSI: 311000554.

Date/timePositionNaut miles runAvg speedWind from/ knotsBaromVisibWave heightAir tempDewpointWater temp
2017-Nov-11 16:00N 27°39' W 015°18'510.0
2017-Nov-11 15:30N 27°43' W 015°16'5 9.6
2017-Nov-11 15:00N 27°48' W 015°15'5 9.6
2017-Nov-11 14:31N 27°53' W 015°15'5 9.6
2017-Nov-11 14:01N 27°58' W 015°16'5 9.5
2017-Nov-11 13:30N 28°02' W 015°18'5 9.1
2017-Nov-11 13:00N 28°05' W 015°22'4 7.7
2017-Nov-11 12:30N 28°08' W 015°25'1 1.5
2017-Nov-11 11:57N 28°09' W 015°24'0 0.0
2017-Nov-11 11:24N 28°09' W 015°24'0 0.0
2017-Nov-11 10:57N 28°09' W 015°24'0 0.0
2017-Nov-11 10:27N 28°09' W 015°24'0 0.0
2017-Nov-11 09:57N 28°09' W 015°24'0 0.0
2017-Nov-11 09:24N 28°09' W 015°24'0 0.0
2017-Nov-11 08:57N 28°09' W 015°24'0 0.0
2017-Nov-11 08:30N 28°09' W 015°24'0 0.0
2017-Nov-11 08:00N 28°09' W 015°24'0 0.0
2017-Nov-11 07:30N 28°09' W 015°24'0 0.0
2017-Nov-11 07:00N 28°09' W 015°24'0 0.0
2017-Nov-11 06:27N 28°09' W 015°24'0 0.0
2017-Nov-11 06:00N 28°09' W 015°24'0 0.0
2017-Nov-11 05:30N 28°09' W 015°24'0 0.0
2017-Nov-11 05:00N 28°09' W 015°24'0 0.0
2017-Nov-11 04:30N 28°09' W 015°24'0 0.0
2017-Nov-11 04:00N 28°09' W 015°24'0 0.0
2017-Nov-11 03:30N 28°09' W 015°24'0 0.0
2017-Nov-11 03:00N 28°09' W 015°24'0 0.0
2017-Nov-11 02:30N 28°09' W 015°24'0 0.0
2017-Nov-11 01:51N 28°09' W 015°24'0 0.0
2017-Nov-11 01:21N 28°09' W 015°24'0 0.0
2017-Nov-11 00:51N 28°09' W 015°24'0 0.0
2017-Nov-11 00:24N 28°09' W 015°24'0 0.0
2017-Nov-10 23:48N 28°09' W 015°24'0 0.0
2017-Nov-10 23:21N 28°09' W 015°24'0 0.0
2017-Nov-10 23:00N 28°09' W 015°24'0 0.0
2017-Nov-10 22:29N 28°09' W 015°24'0 0.0
2017-Nov-10 21:59N 28°09' W 015°24'0 0.0
2017-Nov-10 21:26N 28°09' W 015°24'0 0.0
2017-Nov-10 20:59N 28°09' W 015°24'0 0.0
2017-Nov-10 20:29N 28°09' W 015°24'0 0.0
2017-Nov-10 19:59N 28°09' W 015°24'0 0.0
2017-Nov-10 19:29N 28°09' W 015°24'0 0.0
2017-Nov-10 18:59N 28°09' W 015°24'0 0.0
2017-Nov-10 18:29N 28°09' W 015°24'0 0.0
2017-Nov-10 17:59N 28°09' W 015°24'0 0.0
2017-Nov-10 17:29N 28°09' W 015°24'0 0.0
2017-Nov-10 16:47N 28°09' W 015°24'0 0.0
2017-Nov-10 16:05N 28°09' W 015°24'0 0.0
2017-Nov-10 15:53N 28°09' W 015°24'0 0.0
2017-Nov-10 15:23N 28°09' W 015°24'0 0.0
2017-Nov-10 14:53N 28°09' W 015°24'0 0.0
2017-Nov-10 14:23N 28°09' W 015°24'0 0.0
2017-Nov-10 13:53N 28°09' W 015°24'0 0.0
2017-Nov-10 13:20N 28°09' W 015°24'0 0.0
2017-Nov-10 12:53N 28°09' W 015°24'0 0.0
2017-Nov-10 12:23N 28°09' W 015°24'0 0.0
2017-Nov-10 11:53N 28°09' W 015°24'0 0.0
2017-Nov-10 11:26N 28°09' W 015°24'0 0.0
2017-Nov-10 10:56N 28°09' W 015°24'0 0.0
2017-Nov-10 10:23N 28°09' W 015°24'0 0.0
2017-Nov-10 09:56N 28°09' W 015°24'0 0.0
2017-Nov-10 09:29N 28°09' W 015°24'0 0.0
2017-Nov-10 08:59N 28°09' W 015°24'0 0.0
2017-Nov-10 08:29N 28°09' W 015°24'0 0.0
2017-Nov-10 07:59N 28°09' W 015°24'0 0.0
2017-Nov-10 07:29N 28°09' W 015°24'0 0.0
2017-Nov-10 06:59N 28°09' W 015°24'0 0.0
2017-Nov-10 06:29N 28°09' W 015°24'0 0.0
2017-Nov-10 05:59N 28°09' W 015°24'0 0.0
2017-Nov-10 05:29N 28°09' W 015°24'0 0.0
2017-Nov-10 04:47N 28°09' W 015°24'0 0.0
2017-Nov-10 04:29N 28°09' W 015°24'0 0.0
2017-Nov-10 03:47N 28°09' W 015°24'0 0.0
2017-Nov-10 03:29N 28°09' W 015°24'0 0.0
2017-Nov-10 02:59N 28°09' W 015°24'0 0.0
2017-Nov-10 02:29N 28°09' W 015°24'0 0.0
2017-Nov-10 01:47N 28°09' W 015°24'0 0.0
2017-Nov-10 01:20N 28°09' W 015°24'0 0.0
2017-Nov-10 00:53N 28°09' W 015°24'0 0.0
2017-Nov-10 00:23N 28°09' W 015°24'0 0.0
2017-Nov-09 23:53N 28°09' W 015°24'0 0.0
2017-Nov-09 23:23N 28°09' W 015°24'0 0.0
2017-Nov-09 22:53N 28°09' W 015°24'0 0.0
2017-Nov-09 22:23N 28°09' W 015°24'0 0.0
2017-Nov-09 21:53N 28°09' W 015°24'0 0.0
2017-Nov-09 21:23N 28°09' W 015°24'0 0.0
2017-Nov-09 20:53N 28°09' W 015°24'0 0.0
2017-Nov-09 20:26N 28°09' W 015°24'0 0.0
2017-Nov-09 19:53N 28°09' W 015°24'0 0.0
2017-Nov-09 19:26N 28°09' W 015°24'0 0.0
2017-Nov-09 18:56N 28°09' W 015°24'0 0.0
2017-Nov-09 18:26N 28°09' W 015°24'0 0.0
2017-Nov-09 17:59N 28°09' W 015°24'0 0.0
2017-Nov-09 17:29N 28°09' W 015°24'0 0.0
2017-Nov-09 16:59N 28°09' W 015°24'0 0.0
2017-Nov-09 16:29N 28°09' W 015°24'0 0.0
2017-Nov-09 15:59N 28°09' W 015°24'0 0.0
2017-Nov-09 15:26N 28°09' W 015°24'0 0.0
2017-Nov-09 14:59N 28°09' W 015°24'0 0.0
2017-Nov-09 14:29N 28°09' W 015°24'0 0.0
2017-Nov-09 13:47N 28°09' W 015°24'0 0.0
2017-Nov-09 13:29N 28°09' W 015°24'0 0.0
2017-Nov-09 12:59N 28°09' W 015°24'0 0.0
2017-Nov-09 12:29N 28°09' W 015°24'0 0.0
2017-Nov-09 11:59N 28°09' W 015°24'0 0.0
2017-Nov-09 11:29N 28°09' W 015°24'0 0.0
2017-Nov-09 10:50N 28°09' W 015°24'0 0.0
2017-Nov-09 10:20N 28°09' W 015°24'0 0.0
2017-Nov-09 09:50N 28°09' W 015°24'0 0.0
2017-Nov-09 09:20N 28°09' W 015°24'0 0.0
2017-Nov-09 08:50N 28°09' W 015°24'0 0.0
2017-Nov-09 08:23N 28°09' W 015°24'0 0.0
2017-Nov-09 07:53N 28°09' W 015°24'0 0.0
2017-Nov-09 07:26N 28°09' W 015°24'0 0.0
2017-Nov-09 06:56N 28°09' W 015°24'0 0.0
2017-Nov-09 06:26N 28°09' W 015°24'0 0.0
2017-Nov-09 05:56N 28°09' W 015°24'0 0.0
2017-Nov-09 05:26N 28°09' W 015°24'0 0.0
2017-Nov-09 04:56N 28°09' W 015°24'0 0.0
2017-Nov-09 04:26N 28°09' W 015°24'0 0.0
2017-Nov-09 03:56N 28°09' W 015°24'0 0.0
2017-Nov-09 03:29N 28°09' W 015°24'0 0.0
2017-Nov-09 02:59N 28°09' W 015°24'0 0.0
2017-Nov-09 02:29N 28°09' W 015°24'0 0.0
2017-Nov-09 01:59N 28°09' W 015°24'0 0.0
2017-Nov-09 01:29N 28°09' W 015°24'0 0.0
2017-Nov-09 00:59N 28°09' W 015°24'0 0.0
2017-Nov-09 00:29N 28°09' W 015°24'0 0.0
2017-Nov-08 23:59N 28°09' W 015°24'0 0.0
2017-Nov-08 23:29N 28°09' W 015°24'0 0.0
2017-Nov-08 22:59N 28°09' W 015°24'0 0.0
2017-Nov-08 22:29N 28°09' W 015°24'0 0.0
2017-Nov-08 21:59N 28°09' W 015°24'0 0.0
2017-Nov-08 21:29N 28°09' W 015°24'0 0.0
2017-Nov-08 20:59N 28°09' W 015°24'0 0.0
2017-Nov-08 20:29N 28°09' W 015°24'0 0.0
2017-Nov-08 19:59N 28°09' W 015°24'0 0.0
2017-Nov-08 19:20N 28°09' W 015°24'0 0.0
2017-Nov-08 18:59N 28°09' W 015°24'0 0.0
2017-Nov-08 18:23N 28°09' W 015°24'0 0.0
2017-Nov-08 17:53N 28°09' W 015°24'0 0.0
2017-Nov-08 17:23N 28°09' W 015°24'0 0.0
2017-Nov-08 16:53N 28°09' W 015°24'0 0.0
2017-Nov-08 16:26N 28°09' W 015°24'0 0.0
2017-Nov-08 15:57N 28°09' W 015°24'0 0.4
2017-Nov-08 15:20N 28°09' W 015°24'0 0.0
2017-Nov-08 14:50N 28°09' W 015°24'0 0.0
2017-Nov-08 14:23N 28°09' W 015°24'0 0.0
2017-Nov-08 13:53N 28°09' W 015°24'0 0.0
2017-Nov-08 13:23N 28°09' W 015°24'0 0.0
2017-Nov-08 12:53N 28°09' W 015°24'0 0.0
2017-Nov-08 12:24N 28°09' W 015°24'0 0.7
2017-Nov-08 11:58N 28°09' W 015°24'0 0.0
2017-Nov-08 11:28N 28°09' W 015°24'0 0.0
2017-Nov-08 10:55N 28°09' W 015°24'0 0.0
2017-Nov-08 10:30N 28°09' W 015°24'0 0.0
2017-Nov-08 10:00N 28°09' W 015°24'0 0.0
2017-Nov-08 09:30N 28°09' W 015°24'0 0.1
2017-Nov-08 09:00N 28°09' W 015°24'4 7.6
2017-Nov-08 08:30N 28°05' W 015°24'3 6.7
2017-Nov-08 08:00N 28°09' W 015°25'0 0.8
2017-Nov-08 07:24N 28°09' W 015°24'0 0.0
2017-Nov-08 06:57N 28°09' W 015°24'0 0.0
2017-Nov-08 06:27N 28°09' W 015°24'0 0.0
2017-Nov-08 05:57N 28°09' W 015°24'0 0.0
2017-Nov-08 05:27N 28°09' W 015°24'0 0.0
2017-Nov-08 04:57N 28°09' W 015°24'0 0.0
2017-Nov-08 04:30N 28°09' W 015°24'0 0.0
2017-Nov-08 03:57N 28°09' W 015°24'0 0.0
2017-Nov-08 03:30N 28°09' W 015°24'0 0.0
2017-Nov-08 03:00N 28°09' W 015°24'0 0.0
2017-Nov-08 02:30N 28°09' W 015°24'0 0.0
2017-Nov-08 02:00N 28°09' W 015°24'0 0.0
2017-Nov-08 01:27N 28°09' W 015°24'0 0.0
2017-Nov-08 01:00N 28°09' W 015°24'0 0.0
2017-Nov-08 00:30N 28°09' W 015°24'0 0.0
2017-Nov-08 00:00N 28°09' W 015°24'0 0.0
2017-Nov-07 23:30N 28°09' W 015°24'0 0.0
2017-Nov-07 23:00N 28°09' W 015°24'0 0.0
2017-Nov-07 22:30N 28°09' W 015°24'0 0.0
2017-Nov-07 22:00N 28°09' W 015°24'0 0.0
2017-Nov-07 21:30N 28°09' W 015°24'0 0.0
2017-Nov-07 20:54N 28°09' W 015°24'0 0.0
2017-Nov-07 20:21N 28°09' W 015°24'0 0.0
2017-Nov-07 19:36N 28°09' W 015°24'0 0.0
2017-Nov-07 19:24N 28°09' W 015°24'0 0.0
2017-Nov-07 18:51N 28°09' W 015°24'0 0.0
2017-Nov-07 18:24N 28°09' W 015°24'0 0.0
2017-Nov-07 17:54N 28°09' W 015°24'0 0.0
2017-Nov-07 17:24N 28°09' W 015°24'0 0.0
2017-Nov-07 16:54N 28°09' W 015°24'0 0.0
2017-Nov-07 16:24N 28°09' W 015°24'0 0.0
2017-Nov-07 15:58N 28°09' W 015°24'0 0.0
2017-Nov-07 15:16N 28°09' W 015°24'0 0.0
2017-Nov-07 14:58N 28°09' W 015°24'0 0.0
2017-Nov-07 14:28N 28°09' W 015°24'0 0.0
2017-Nov-07 13:49N 28°09' W 015°24'0 0.0
2017-Nov-07 13:28N 28°09' W 015°24'0 0.0
2017-Nov-07 12:49N 28°09' W 015°24'0 0.0
2017-Nov-07 12:19N 28°09' W 015°24'0 0.0
2017-Nov-07 11:52N 28°09' W 015°24'0 0.0
2017-Nov-07 11:14N 28°09' W 015°24'0 0.0
2017-Nov-07 10:59N 28°09' W 015°24'0 0.0
2017-Nov-07 10:29N 28°09' W 015°24'0 0.0
2017-Nov-07 09:59N 28°09' W 015°24'0 0.0
2017-Nov-07 09:29N 28°09' W 015°24'0 0.0
2017-Nov-07 08:59N 28°09' W 015°24'0 0.0
2017-Nov-07 08:29N 28°09' W 015°24'0 0.0
2017-Nov-07 07:59N 28°09' W 015°24'0 0.0
2017-Nov-07 07:29N 28°09' W 015°24'0 0.0
2017-Nov-07 06:59N 28°09' W 015°24'0 0.0
2017-Nov-07 06:29N 28°09' W 015°24'0 0.0
2017-Nov-07 05:59N 28°09' W 015°24'0 0.0
2017-Nov-07 05:20N 28°09' W 015°24'0 0.0
2017-Nov-07 04:50N 28°09' W 015°24'0 0.0
2017-Nov-07 04:23N 28°09' W 015°24'0 0.0
2017-Nov-07 03:53N 28°09' W 015°24'0 0.0
2017-Nov-07 03:23N 28°09' W 015°24'0 0.0
2017-Nov-07 02:53N 28°09' W 015°24'0 0.0
2017-Nov-07 02:23N 28°09' W 015°24'0 0.0
2017-Nov-07 01:53N 28°09' W 015°24'0 0.0
2017-Nov-07 01:23N 28°09' W 015°24'0 0.0
2017-Nov-07 00:56N 28°09' W 015°24'0 0.0
2017-Nov-07 00:26N 28°09' W 015°24'0 0.0
2017-Nov-06 23:56N 28°09' W 015°24'0 0.0
2017-Nov-06 23:26N 28°09' W 015°24'0 0.0
2017-Nov-06 22:56N 28°09' W 015°24'0 0.0
2017-Nov-06 22:29N 28°09' W 015°24'0 0.0
2017-Nov-06 21:59N 28°09' W 015°24'0 0.0
2017-Nov-06 21:29N 28°09' W 015°24'0 0.0
2017-Nov-06 20:56N 28°09' W 015°24'0 0.0
2017-Nov-06 20:14N 28°09' W 015°24'0 0.0
2017-Nov-06 02:29N 28°09' W 015°24'0 0.0
2017-Nov-06 01:59N 28°09' W 015°24'0 0.0
2017-Nov-06 01:29N 28°09' W 015°24'0 0.0
2017-Nov-06 00:59N 28°09' W 015°24'0 0.0
2017-Nov-06 00:29N 28°09' W 015°24'0 0.0
2017-Nov-05 23:59N 28°09' W 015°24'0 0.0
2017-Nov-05 23:20N 28°09' W 015°24'0 0.0
2017-Nov-05 22:50N 28°09' W 015°24'0 0.0
2017-Nov-05 22:20N 28°09' W 015°24'0 0.0
2017-Nov-05 21:53N 28°09' W 015°24'0 0.0
2017-Nov-05 21:23N 28°09' W 015°24'0 0.0
2017-Nov-05 20:53N 28°09' W 015°24'0 0.0
2017-Nov-05 20:23N 28°09' W 015°24'0 0.0
2017-Nov-05 19:53N 28°09' W 015°24'0 0.0
2017-Nov-05 19:26N 28°09' W 015°24'0 0.0
2017-Nov-05 18:53N 28°09' W 015°24'0 0.0
2017-Nov-05 18:26N 28°09' W 015°24'0 0.0
2017-Nov-05 17:56N 28°09' W 015°24'0 0.0
2017-Nov-05 17:26N 28°09' W 015°24'0 0.0
2017-Nov-05 16:56N 28°09' W 015°24'0 0.0
2017-Nov-05 16:26N 28°09' W 015°24'0 0.0
2017-Nov-05 15:56N 28°09' W 015°24'0 0.0
2017-Nov-05 15:29N 28°09' W 015°24'0 0.0
2017-Nov-05 14:59N 28°09' W 015°24'0 0.0
2017-Nov-05 14:29N 28°09' W 015°24'0 0.0
2017-Nov-05 13:56N 28°09' W 015°24'0 0.0
2017-Nov-05 13:26N 28°09' W 015°24'0 0.0
2017-Nov-05 12:59N 28°09' W 015°24'0 0.0
2017-Nov-05 12:29N 28°09' W 015°24'0 0.0
2017-Nov-05 11:59N 28°09' W 015°24'0 0.0
2017-Nov-05 11:29N 28°09' W 015°24'0 0.0
2017-Nov-05 10:59N 28°09' W 015°24'0 0.0
2017-Nov-05 10:29N 28°09' W 015°24'0 0.0
2017-Nov-05 09:59N 28°09' W 015°24'0 0.0
2017-Nov-05 09:29N 28°09' W 015°24'0 0.0
2017-Nov-05 08:50N 28°09' W 015°24'0 0.0
2017-Nov-05 08:20N 28°09' W 015°24'0 0.0
2017-Nov-05 07:50N 28°09' W 015°24'0 0.0
2017-Nov-05 07:30N 28°09' W 015°24'2 3.6
2017-Nov-05 07:00N 28°07' W 015°24'4 7.1
2017-Nov-05 06:30N 28°06' W 015°21'4 7.3
2017-Nov-05 06:00N 28°04' W 015°17'4 7.2
2017-Nov-05 05:30N 28°01' W 015°15'3 6.3
2017-Nov-05 05:00N 27°58' W 015°14'3 6.3
2017-Nov-05 04:28N 27°54' W 015°14'3 6.1
2017-Nov-05 04:00N 27°52' W 015°14'3 6.1
2017-Nov-05 03:30N 27°49' W 015°14'  

Dump ship's entire track history